Aviation Digital Data Service (ADDS)

Output produced by METARs form (0636 UTC 27 March 2017)
found at http://www.aviationweather.gov/adds/metars/
 
TAF MPPA 270500Z 2706/2812 36006KT 9999 FEW018 
     BECMG 2708/2712 00000KT 
     PROB30 2718/2721 21006KT 8000 -SHRA SCT018 
     TEMPO 2721/2801 36010KT
       
TAF MPDA 270500Z 2706/2718 00000KT 9999 SCT018 
     BECMG 2714/2718 19008KT
       
TAF MPMG 270500Z 2706/2718 00000KT 9999 FEW018 
     BECMG 2714/2718 32006KT
       
TAF MPTO 270500Z 2706/2812 00000KT 9999 FEW018 
     TEMPO 2714/2717 32005KT 
     TEMPO 2718/2721 18005KT 8000 -SHRA SCT018 
     TEMPO 2721/2801 03006KT